sensor_id;sensor_type;location;lat;lon;timestamp;pressure;altitude;pressure_sealevel;temperature;humidity
54924;BME280;40825;52.270;20.984;2024-03-08T00:01:21;101463.20;;;0.10;81.42
54924;BME280;40825;52.270;20.984;2024-03-08T00:03:47;101462.08;;;0.11;81.33
54924;BME280;40825;52.270;20.984;2024-03-08T00:06:13;101458.99;;;0.10;81.43
54924;BME280;40825;52.270;20.984;2024-03-08T00:08:41;101459.88;;;0.10;81.38
54924;BME280;40825;52.270;20.984;2024-03-08T00:11:07;101455.63;;;0.11;81.27
54924;BME280;40825;52.270;20.984;2024-03-08T00:13:33;101450.46;;;0.10;81.77
54924;BME280;40825;52.270;20.984;2024-03-08T00:15:59;101453.73;;;0.08;81.36
54924;BME280;40825;52.270;20.984;2024-03-08T00:18:49;101453.38;;;0.08;81.12
54924;BME280;40825;52.270;20.984;2024-03-08T00:21:20;101454.52;;;0.06;81.39
54924;BME280;40825;52.270;20.984;2024-03-08T00:24:09;101455.73;;;0.04;81.28
54924;BME280;40825;52.270;20.984;2024-03-08T00:26:37;101451.61;;;0.03;81.07
54924;BME280;40825;52.270;20.984;2024-03-08T00:29:02;101449.91;;;0.02;81.22
54924;BME280;40825;52.270;20.984;2024-03-08T00:31:43;101449.69;;;-0.01;82.51
54924;BME280;40825;52.270;20.984;2024-03-08T00:34:29;101450.51;;;-0.03;82.04
54924;BME280;40825;52.270;20.984;2024-03-08T00:36:57;101454.36;;;-0.03;81.64
54924;BME280;40825;52.270;20.984;2024-03-08T00:42:48;101449.83;;;-0.06;81.95
54924;BME280;40825;52.270;20.984;2024-03-08T00:45:15;101449.52;;;-0.06;82.72
54924;BME280;40825;52.270;20.984;2024-03-08T00:47:41;101446.79;;;-0.10;82.75
54924;BME280;40825;52.270;20.984;2024-03-08T00:50:09;101446.16;;;-0.14;83.38
54924;BME280;40825;52.270;20.984;2024-03-08T00:52:36;101447.03;;;-0.17;82.69
54924;BME280;40825;52.270;20.984;2024-03-08T00:55:02;101443.52;;;-0.17;82.75
54924;BME280;40825;52.270;20.984;2024-03-08T00:57:30;101445.48;;;-0.18;82.50
54924;BME280;40825;52.270;20.984;2024-03-08T01:00:39;101442.28;;;-0.17;82.50
54924;BME280;40825;52.270;20.984;2024-03-08T01:03:59;101445.13;;;-0.18;83.56
54924;BME280;40825;52.270;20.984;2024-03-08T01:06:35;101445.83;;;-0.20;82.93
54924;BME280;40825;52.270;20.984;2024-03-08T01:09:03;101440.70;;;-0.22;82.40
54924;BME280;40825;52.270;20.984;2024-03-08T01:11:33;101434.85;;;-0.27;82.56
54924;BME280;40825;52.270;20.984;2024-03-08T01:13:59;101438.52;;;-0.30;82.92
54924;BME280;40825;52.270;20.984;2024-03-08T01:16:25;101437.90;;;-0.31;82.97
54924;BME280;40825;52.270;20.984;2024-03-08T01:18:51;101437.70;;;-0.33;83.21
54924;BME280;40825;52.270;20.984;2024-03-08T01:21:17;101435.05;;;-0.36;83.26
54924;BME280;40825;52.270;20.984;2024-03-08T01:24:26;101436.30;;;-0.39;83.09
54924;BME280;40825;52.270;20.984;2024-03-08T01:27:03;101435.27;;;-0.42;83.18
54924;BME280;40825;52.270;20.984;2024-03-08T01:29:29;101428.24;;;-0.45;83.38
54924;BME280;40825;52.270;20.984;2024-03-08T01:31:55;101424.66;;;-0.46;83.44
54924;BME280;40825;52.270;20.984;2024-03-08T01:34:27;101422.21;;;-0.49;83.45
54924;BME280;40825;52.270;20.984;2024-03-08T01:36:54;101421.52;;;-0.52;83.34
54924;BME280;40825;52.270;20.984;2024-03-08T01:39:25;101419.30;;;-0.56;83.37
54924;BME280;40825;52.270;20.984;2024-03-08T01:41:50;101420.55;;;-0.60;83.49
54924;BME280;40825;52.270;20.984;2024-03-08T01:44:16;101414.91;;;-0.62;83.80
54924;BME280;40825;52.270;20.984;2024-03-08T01:46:45;101418.64;;;-0.63;83.75
54924;BME280;40825;52.270;20.984;2024-03-08T01:49:12;101418.91;;;-0.64;83.82
54924;BME280;40825;52.270;20.984;2024-03-08T01:51:38;101417.27;;;-0.66;83.90
54924;BME280;40825;52.270;20.984;2024-03-08T01:54:06;101416.70;;;-0.68;83.94
54924;BME280;40825;52.270;20.984;2024-03-08T01:56:36;101415.53;;;-0.69;84.23
54924;BME280;40825;52.270;20.984;2024-03-08T01:59:03;101419.81;;;-0.71;84.27
54924;BME280;40825;52.270;20.984;2024-03-08T02:01:32;101415.75;;;-0.73;84.32
54924;BME280;40825;52.270;20.984;2024-03-08T02:03:58;101413.83;;;-0.76;84.33
54924;BME280;40825;52.270;20.984;2024-03-08T02:06:24;101413.60;;;-0.78;84.50
54924;BME280;40825;52.270;20.984;2024-03-08T02:08:50;101411.63;;;-0.80;84.57
54924;BME280;40825;52.270;20.984;2024-03-08T02:11:16;101405.88;;;-0.80;84.59
54924;BME280;40825;52.270;20.984;2024-03-08T02:13:44;101404.13;;;-0.80;84.73
54924;BME280;40825;52.270;20.984;2024-03-08T02:18:50;101404.86;;;-0.81;84.91
54924;BME280;40825;52.270;20.984;2024-03-08T02:21:58;101402.11;;;-0.82;84.95
54924;BME280;40825;52.270;20.984;2024-03-08T02:24:23;101402.85;;;-0.82;85.12
54924;BME280;40825;52.270;20.984;2024-03-08T02:26:49;101399.04;;;-0.86;85.02
54924;BME280;40825;52.270;20.984;2024-03-08T02:29:17;101397.85;;;-0.87;85.18
54924;BME280;40825;52.270;20.984;2024-03-08T02:31:43;101400.88;;;-0.88;85.44
54924;BME280;40825;52.270;20.984;2024-03-08T02:34:29;101399.49;;;-0.88;85.47
54924;BME280;40825;52.270;20.984;2024-03-08T02:36:56;101399.27;;;-0.90;85.34
54924;BME280;40825;52.270;20.984;2024-03-08T02:39:22;101398.39;;;-0.93;85.34
54924;BME280;40825;52.270;20.984;2024-03-08T02:41:48;101399.06;;;-0.95;85.66
54924;BME280;40825;52.270;20.984;2024-03-08T02:44:13;101397.17;;;-0.99;85.57
54924;BME280;40825;52.270;20.984;2024-03-08T02:46:52;101395.77;;;-0.99;85.67
54924;BME280;40825;52.270;20.984;2024-03-08T02:49:49;101397.25;;;-1.00;85.74
54924;BME280;40825;52.270;20.984;2024-03-08T02:52:15;101392.62;;;-1.02;85.77
54924;BME280;40825;52.270;20.984;2024-03-08T02:54:41;101390.70;;;-1.02;85.75
54924;BME280;40825;52.270;20.984;2024-03-08T02:57:23;101387.95;;;-1.03;86.12
54924;BME280;40825;52.270;20.984;2024-03-08T03:00:00;101389.27;;;-1.04;86.26
54924;BME280;40825;52.270;20.984;2024-03-08T03:02:28;101389.39;;;-1.06;86.20
54924;BME280;40825;52.270;20.984;2024-03-08T03:04:54;101386.06;;;-1.06;86.33
54924;BME280;40825;52.270;20.984;2024-03-08T03:07:21;101386.30;;;-1.07;86.21
54924;BME280;40825;52.270;20.984;2024-03-08T03:10:05;101387.21;;;-1.08;86.50
54924;BME280;40825;52.270;20.984;2024-03-08T03:12:32;101386.56;;;-1.08;86.70
54924;BME280;40825;52.270;20.984;2024-03-08T03:14:59;101387.80;;;-1.09;86.73
54924;BME280;40825;52.270;20.984;2024-03-08T03:17:25;101389.10;;;-1.11;86.76
54924;BME280;40825;52.270;20.984;2024-03-08T03:19:54;101383.60;;;-1.12;86.53
54924;BME280;40825;52.270;20.984;2024-03-08T03:22:21;101386.25;;;-1.16;86.68
54924;BME280;40825;52.270;20.984;2024-03-08T03:24:46;101386.81;;;-1.16;86.87
54924;BME280;40825;52.270;20.984;2024-03-08T03:27:13;101387.19;;;-1.19;86.82
54924;BME280;40825;52.270;20.984;2024-03-08T03:29:41;101386.48;;;-1.22;86.97
54924;BME280;40825;52.270;20.984;2024-03-08T03:32:15;101383.34;;;-1.23;87.12
54924;BME280;40825;52.270;20.984;2024-03-08T03:34:40;101382.95;;;-1.22;87.34
54924;BME280;40825;52.270;20.984;2024-03-08T03:37:08;101385.02;;;-1.21;87.35
54924;BME280;40825;52.270;20.984;2024-03-08T03:39:42;101383.46;;;-1.21;87.56
54924;BME280;40825;52.270;20.984;2024-03-08T03:42:18;101382.45;;;-1.22;87.54
54924;BME280;40825;52.270;20.984;2024-03-08T03:44:45;101382.10;;;-1.22;87.75
54924;BME280;40825;52.270;20.984;2024-03-08T03:47:12;101381.79;;;-1.22;87.73
54924;BME280;40825;52.270;20.984;2024-03-08T03:49:38;101378.97;;;-1.26;87.93
54924;BME280;40825;52.270;20.984;2024-03-08T03:52:06;101378.99;;;-1.29;87.80
54924;BME280;40825;52.270;20.984;2024-03-08T03:54:32;101378.52;;;-1.30;87.93
54924;BME280;40825;52.270;20.984;2024-03-08T03:56:58;101376.59;;;-1.30;87.94
54924;BME280;40825;52.270;20.984;2024-03-08T03:59:34;101372.94;;;-1.30;88.07
54924;BME280;40825;52.270;20.984;2024-03-08T04:02:00;101369.70;;;-1.31;87.97
54924;BME280;40825;52.270;20.984;2024-03-08T04:04:26;101369.05;;;-1.32;88.22
54924;BME280;40825;52.270;20.984;2024-03-08T04:06:54;101368.64;;;-1.31;88.49
54924;BME280;40825;52.270;20.984;2024-03-08T04:09:20;101365.91;;;-1.32;88.17
54924;BME280;40825;52.270;20.984;2024-03-08T04:11:50;101364.11;;;-1.34;88.25
54924;BME280;40825;52.270;20.984;2024-03-08T04:14:18;101361.90;;;-1.35;88.48
54924;BME280;40825;52.270;20.984;2024-03-08T04:16:44;101367.11;;;-1.35;88.70
54924;BME280;40825;52.270;20.984;2024-03-08T04:19:12;101367.29;;;-1.35;88.77
54924;BME280;40825;52.270;20.984;2024-03-08T04:21:38;101364.02;;;-1.36;88.90
54924;BME280;40825;52.270;20.984;2024-03-08T04:24:07;101363.00;;;-1.36;88.90
54924;BME280;40825;52.270;20.984;2024-03-08T04:26:34;101362.74;;;-1.38;89.11
54924;BME280;40825;52.270;20.984;2024-03-08T04:29:09;101361.80;;;-1.40;88.94
54924;BME280;40825;52.270;20.984;2024-03-08T04:31:44;101360.77;;;-1.44;88.97
54924;BME280;40825;52.270;20.984;2024-03-08T04:34:10;101363.94;;;-1.44;89.12
54924;BME280;40825;52.270;20.984;2024-03-08T04:36:45;101363.06;;;-1.44;89.11
54924;BME280;40825;52.270;20.984;2024-03-08T04:39:24;101359.92;;;-1.44;89.51
54924;BME280;40825;52.270;20.984;2024-03-08T04:41:55;101359.08;;;-1.45;89.67
54924;BME280;40825;52.270;20.984;2024-03-08T04:44:45;101356.80;;;-1.47;89.72
54924;BME280;40825;52.270;20.984;2024-03-08T04:47:14;101356.77;;;-1.49;89.53
54924;BME280;40825;52.270;20.984;2024-03-08T04:49:43;101362.52;;;-1.49;89.69
54924;BME280;40825;52.270;20.984;2024-03-08T04:52:30;101359.08;;;-1.50;89.58
54924;BME280;40825;52.270;20.984;2024-03-08T04:54:55;101355.60;;;-1.50;89.57
54924;BME280;40825;52.270;20.984;2024-03-08T04:57:23;101359.55;;;-1.53;89.66
54924;BME280;40825;52.270;20.984;2024-03-08T04:59:50;101357.04;;;-1.54;89.64
54924;BME280;40825;52.270;20.984;2024-03-08T05:02:15;101359.27;;;-1.54;89.77
54924;BME280;40825;52.270;20.984;2024-03-08T05:04:44;101359.08;;;-1.54;89.75
54924;BME280;40825;52.270;20.984;2024-03-08T05:07:10;101361.95;;;-1.52;89.89
54924;BME280;40825;52.270;20.984;2024-03-08T05:09:36;101359.80;;;-1.51;90.00
54924;BME280;40825;52.270;20.984;2024-03-08T05:12:01;101360.02;;;-1.51;90.02
54924;BME280;40825;52.270;20.984;2024-03-08T05:14:30;101360.16;;;-1.51;90.15
54924;BME280;40825;52.270;20.984;2024-03-08T05:16:56;101359.18;;;-1.49;90.35
54924;BME280;40825;52.270;20.984;2024-03-08T05:19:21;101364.48;;;-1.47;90.52
54924;BME280;40825;52.270;20.984;2024-03-08T05:21:53;101361.25;;;-1.46;90.56
54924;BME280;40825;52.270;20.984;2024-03-08T05:24:18;101365.73;;;-1.45;90.26
54924;BME280;40825;52.270;20.984;2024-03-08T05:26:56;101364.06;;;-1.46;90.38
54924;BME280;40825;52.270;20.984;2024-03-08T05:29:24;101359.10;;;-1.45;90.72
54924;BME280;40825;52.270;20.984;2024-03-08T05:31:54;101362.46;;;-1.42;90.45
54924;BME280;40825;52.270;20.984;2024-03-08T05:34:20;101359.80;;;-1.42;90.41
54924;BME280;40825;52.270;20.984;2024-03-08T05:36:47;101358.93;;;-1.42;90.71
54924;BME280;40825;52.270;20.984;2024-03-08T05:39:15;101361.30;;;-1.41;90.85
54924;BME280;40825;52.270;20.984;2024-03-08T05:41:42;101360.08;;;-1.37;90.76
54924;BME280;40825;52.270;20.984;2024-03-08T05:44:08;101364.83;;;-1.34;90.72
54924;BME280;40825;52.270;20.984;2024-03-08T05:46:34;101362.36;;;-1.31;90.93
54924;BME280;40825;52.270;20.984;2024-03-08T05:49:03;101363.79;;;-1.26;90.92
54924;BME280;40825;52.270;20.984;2024-03-08T05:51:53;101362.74;;;-1.20;90.98
54924;BME280;40825;52.270;20.984;2024-03-08T05:54:19;101361.04;;;-1.12;91.26
54924;BME280;40825;52.270;20.984;2024-03-08T05:56:47;101358.52;;;-1.01;91.36
54924;BME280;40825;52.270;20.984;2024-03-08T06:02:22;101360.70;;;-0.73;91.24
54924;BME280;40825;52.270;20.984;2024-03-08T06:04:48;101353.90;;;-0.59;91.51
54924;BME280;40825;52.270;20.984;2024-03-08T06:07:15;101354.55;;;-0.47;91.58
54924;BME280;40825;52.270;20.984;2024-03-08T06:09:43;101354.01;;;-0.38;91.82
54924;BME280;40825;52.270;20.984;2024-03-08T06:12:11;101354.81;;;-0.28;92.07
54924;BME280;40825;52.270;20.984;2024-03-08T06:14:45;101357.31;;;-0.15;92.14
54924;BME280;40825;52.270;20.984;2024-03-08T06:17:10;101361.23;;;-0.05;92.03
54924;BME280;40825;52.270;20.984;2024-03-08T06:19:36;101362.41;;;0.04;92.13
54924;BME280;40825;52.270;20.984;2024-03-08T06:22:02;101364.05;;;0.17;92.40
54924;BME280;40825;52.270;20.984;2024-03-08T06:24:33;101364.65;;;0.38;92.80
54924;BME280;40825;52.270;20.984;2024-03-08T06:27:02;101364.61;;;0.71;93.19
54924;BME280;40825;52.270;20.984;2024-03-08T06:29:27;101364.28;;;1.05;93.46
54924;BME280;40825;52.270;20.984;2024-03-08T06:32:23;101362.35;;;1.30;93.37
54924;BME280;40825;52.270;20.984;2024-03-08T06:34:48;101364.48;;;1.46;93.27
54924;BME280;40825;52.270;20.984;2024-03-08T06:37:18;101366.64;;;1.57;93.28
54924;BME280;40825;52.270;20.984;2024-03-08T06:39:48;101367.09;;;1.74;93.47
54924;BME280;40825;52.270;20.984;2024-03-08T06:42:13;101366.75;;;1.98;93.66
54924;BME280;40825;52.270;20.984;2024-03-08T06:44:42;101363.34;;;2.39;93.83
54924;BME280;40825;52.270;20.984;2024-03-08T06:47:16;101364.36;;;2.89;93.42
54924;BME280;40825;52.270;20.984;2024-03-08T06:49:42;101359.36;;;3.27;92.80
54924;BME280;40825;52.270;20.984;2024-03-08T06:52:09;101361.38;;;3.85;93.30
54924;BME280;40825;52.270;20.984;2024-03-08T06:54:35;101366.77;;;4.26;92.77
54924;BME280;40825;52.270;20.984;2024-03-08T06:57:10;101364.30;;;4.52;90.97
54924;BME280;40825;52.270;20.984;2024-03-08T06:59:36;101364.92;;;5.10;92.41
54924;BME280;40825;52.270;20.984;2024-03-08T07:02:02;101365.95;;;5.73;92.33
54924;BME280;40825;52.270;20.984;2024-03-08T07:04:31;101363.95;;;6.32;89.94
54924;BME280;40825;52.270;20.984;2024-03-08T07:07:01;101362.17;;;6.91;85.21
54924;BME280;40825;52.270;20.984;2024-03-08T07:09:27;101362.98;;;7.22;81.89
54924;BME280;40825;52.270;20.984;2024-03-08T07:11:56;101359.77;;;7.64;81.91
54924;BME280;40825;52.270;20.984;2024-03-08T07:14:26;101359.16;;;8.20;85.89
54924;BME280;40825;52.270;20.984;2024-03-08T07:16:51;101356.13;;;8.66;87.71
54924;BME280;40825;52.270;20.984;2024-03-08T07:19:18;101357.13;;;9.02;88.07
54924;BME280;40825;52.270;20.984;2024-03-08T07:21:45;101355.61;;;9.34;84.56
54924;BME280;40825;52.270;20.984;2024-03-08T07:24:13;101355.86;;;9.70;86.59
54924;BME280;40825;52.270;20.984;2024-03-08T07:26:47;101358.95;;;9.78;81.37
54924;BME280;40825;52.270;20.984;2024-03-08T07:29:36;101359.02;;;9.81;83.35
54924;BME280;40825;52.270;20.984;2024-03-08T07:32:01;101360.89;;;9.68;81.54
54924;BME280;40825;52.270;20.984;2024-03-08T07:34:38;101355.13;;;9.48;83.69
54924;BME280;40825;52.270;20.984;2024-03-08T07:37:06;101357.02;;;9.19;79.26
54924;BME280;40825;52.270;20.984;2024-03-08T07:39:37;101358.55;;;8.73;66.69
54924;BME280;40825;52.270;20.984;2024-03-08T07:42:03;101359.40;;;8.38;69.95
54924;BME280;40825;52.270;20.984;2024-03-08T07:44:28;101356.80;;;8.26;71.49
54924;BME280;40825;52.270;20.984;2024-03-08T07:46:54;101353.86;;;8.13;71.03
54924;BME280;40825;52.270;20.984;2024-03-08T07:49:20;101352.59;;;8.00;76.20
54924;BME280;40825;52.270;20.984;2024-03-08T07:51:46;101353.77;;;7.60;71.64
54924;BME280;40825;52.270;20.984;2024-03-08T07:54:14;101357.39;;;7.18;63.65
54924;BME280;40825;52.270;20.984;2024-03-08T07:56:42;101352.83;;;6.96;63.41
54924;BME280;40825;52.270;20.984;2024-03-08T07:59:07;101349.01;;;6.84;62.16
54924;BME280;40825;52.270;20.984;2024-03-08T08:01:33;101350.17;;;6.86;64.71
54924;BME280;40825;52.270;20.984;2024-03-08T08:03:59;101347.65;;;7.02;69.86
54924;BME280;40825;52.270;20.984;2024-03-08T08:06:27;101347.45;;;7.10;71.87
54924;BME280;40825;52.270;20.984;2024-03-08T08:08:53;101348.64;;;7.09;70.02
54924;BME280;40825;52.270;20.984;2024-03-08T08:11:19;101349.90;;;7.11;65.98
54924;BME280;40825;52.270;20.984;2024-03-08T08:13:48;101347.91;;;7.07;63.18
54924;BME280;40825;52.270;20.984;2024-03-08T08:16:14;101347.51;;;7.08;67.91
54924;BME280;40825;52.270;20.984;2024-03-08T08:18:40;101346.63;;;7.09;70.64
54924;BME280;40825;52.270;20.984;2024-03-08T08:21:06;101340.84;;;6.97;70.56
54924;BME280;40825;52.270;20.984;2024-03-08T08:23:32;101340.08;;;6.75;67.69
54924;BME280;40825;52.270;20.984;2024-03-08T08:26:01;101334.80;;;6.61;69.49
54924;BME280;40825;52.270;20.984;2024-03-08T08:28:28;101334.80;;;6.51;67.73
54924;BME280;40825;52.270;20.984;2024-03-08T08:30:54;101334.59;;;6.34;63.40
54924;BME280;40825;52.270;20.984;2024-03-08T08:33:20;101332.36;;;6.36;67.35
54924;BME280;40825;52.270;20.984;2024-03-08T08:35:45;101328.74;;;6.38;64.56
54924;BME280;40825;52.270;20.984;2024-03-08T08:38:13;101326.08;;;6.40;62.95
54924;BME280;40825;52.270;20.984;2024-03-08T08:40:39;101328.27;;;6.34;59.41
54924;BME280;40825;52.270;20.984;2024-03-08T08:43:13;101332.33;;;6.24;58.88
54924;BME280;40825;52.270;20.984;2024-03-08T08:45:39;101328.56;;;6.27;59.95
54924;BME280;40825;52.270;20.984;2024-03-08T08:48:26;101326.13;;;6.30;60.51
54924;BME280;40825;52.270;20.984;2024-03-08T08:50:53;101325.96;;;6.31;62.53
54924;BME280;40825;52.270;20.984;2024-03-08T08:53:19;101322.26;;;6.30;59.65
54924;BME280;40825;52.270;20.984;2024-03-08T08:55:44;101319.46;;;6.35;61.73
54924;BME280;40825;52.270;20.984;2024-03-08T08:58:11;101315.37;;;6.51;65.41
54924;BME280;40825;52.270;20.984;2024-03-08T09:00:37;101314.09;;;6.65;66.69
54924;BME280;40825;52.270;20.984;2024-03-08T09:03:02;101313.52;;;6.75;67.17
54924;BME280;40825;52.270;20.984;2024-03-08T09:05:28;101315.08;;;6.80;61.27
54924;BME280;40825;52.270;20.984;2024-03-08T09:07:58;101317.70;;;6.76;57.83
54924;BME280;40825;52.270;20.984;2024-03-08T09:10:23;101317.28;;;6.71;56.64
54924;BME280;40825;52.270;20.984;2024-03-08T09:12:49;101315.77;;;6.70;56.56
54924;BME280;40825;52.270;20.984;2024-03-08T09:15:34;101315.81;;;6.85;62.38
54924;BME280;40825;52.270;20.984;2024-03-08T09:18:01;101311.25;;;7.00;62.90
54924;BME280;40825;52.270;20.984;2024-03-08T09:20:27;101306.71;;;7.01;60.00
54924;BME280;40825;52.270;20.984;2024-03-08T09:22:54;101307.48;;;7.10;60.84
54924;BME280;40825;52.270;20.984;2024-03-08T09:28:17;101300.77;;;7.29;61.71
54924;BME280;40825;52.270;20.984;2024-03-08T09:30:45;101301.18;;;7.36;61.98
54924;BME280;40825;52.270;20.984;2024-03-08T09:33:11;101299.48;;;7.59;61.57
54924;BME280;40825;52.270;20.984;2024-03-08T09:35:38;101296.46;;;7.79;56.64
54924;BME280;40825;52.270;20.984;2024-03-08T09:38:04;101292.90;;;7.80;52.71
54924;BME280;40825;52.270;20.984;2024-03-08T09:40:30;101290.91;;;7.84;54.87
54924;BME280;40825;52.270;20.984;2024-03-08T09:42:55;101294.08;;;8.08;56.39
54924;BME280;40825;52.270;20.984;2024-03-08T09:45:25;101292.44;;;8.32;52.98
54924;BME280;40825;52.270;20.984;2024-03-08T09:47:51;101293.08;;;8.36;50.78
54924;BME280;40825;52.270;20.984;2024-03-08T09:50:18;101291.57;;;8.38;50.11
54924;BME280;40825;52.270;20.984;2024-03-08T09:52:47;101292.02;;;8.48;49.86
54924;BME280;40825;52.270;20.984;2024-03-08T09:55:14;101292.20;;;8.77;51.20
54924;BME280;40825;52.270;20.984;2024-03-08T09:57:43;101291.13;;;8.89;47.41
54924;BME280;40825;52.270;20.984;2024-03-08T10:00:32;101286.46;;;9.14;52.69
54924;BME280;40825;52.270;20.984;2024-03-08T10:03:02;101282.34;;;9.39;56.16
54924;BME280;40825;52.270;20.984;2024-03-08T10:05:30;101281.98;;;9.49;53.81
54924;BME280;40825;52.270;20.984;2024-03-08T10:07:58;101279.77;;;9.70;55.10
54924;BME280;40825;52.270;20.984;2024-03-08T10:10:24;101278.60;;;9.74;54.08
54924;BME280;40825;52.270;20.984;2024-03-08T10:12:49;101280.42;;;9.71;52.22
54924;BME280;40825;52.270;20.984;2024-03-08T10:15:16;101283.80;;;9.68;51.08
54924;BME280;40825;52.270;20.984;2024-03-08T10:17:45;101280.88;;;9.83;54.96
54924;BME280;40825;52.270;20.984;2024-03-08T10:20:18;101278.91;;;9.99;48.51
54924;BME280;40825;52.270;20.984;2024-03-08T10:22:44;101276.44;;;9.98;45.58
54924;BME280;40825;52.270;20.984;2024-03-08T10:25:11;101272.78;;;10.03;45.64
54924;BME280;40825;52.270;20.984;2024-03-08T10:27:40;101271.18;;;10.19;48.12
54924;BME280;40825;52.270;20.984;2024-03-08T10:30:10;101270.14;;;10.34;46.36
54924;BME280;40825;52.270;20.984;2024-03-08T10:32:40;101267.34;;;10.25;49.70
54924;BME280;40825;52.270;20.984;2024-03-08T10:35:09;101263.52;;;10.31;52.88
54924;BME280;40825;52.270;20.984;2024-03-08T10:37:48;101262.14;;;10.36;51.19
54924;BME280;40825;52.270;20.984;2024-03-08T10:40:19;101264.34;;;10.24;51.39
54924;BME280;40825;52.270;20.984;2024-03-08T10:43:05;101261.01;;;10.23;50.21
54924;BME280;40825;52.270;20.984;2024-03-08T10:45:37;101265.27;;;10.05;45.48
54924;BME280;40825;52.270;20.984;2024-03-08T10:50:49;101257.39;;;9.80;47.52
54924;BME280;40825;52.270;20.984;2024-03-08T10:53:18;101255.25;;;9.82;49.13
54924;BME280;40825;52.270;20.984;2024-03-08T10:55:47;101256.79;;;9.76;46.38
54924;BME280;40825;52.270;20.984;2024-03-08T10:58:15;101253.88;;;9.58;44.49
54924;BME280;40825;52.270;20.984;2024-03-08T11:00:42;101250.54;;;9.40;45.39
54924;BME280;40825;52.270;20.984;2024-03-08T11:06:14;101245.04;;;9.30;49.85
54924;BME280;40825;52.270;20.984;2024-03-08T11:08:40;101241.90;;;9.18;49.69
54924;BME280;40825;52.270;20.984;2024-03-08T11:11:26;101243.86;;;9.00;44.75
54924;BME280;40825;52.270;20.984;2024-03-08T11:14:02;101240.20;;;8.87;46.83
54924;BME280;40825;52.270;20.984;2024-03-08T11:19:00;101234.80;;;8.67;47.13
54924;BME280;40825;52.270;20.984;2024-03-08T11:21:36;101231.46;;;8.60;47.15
54924;BME280;40825;52.270;20.984;2024-03-08T11:24:17;101230.25;;;8.58;47.44
54924;BME280;40825;52.270;20.984;2024-03-08T11:26:45;101229.00;;;8.47;47.66
54924;BME280;40825;52.270;20.984;2024-03-08T11:32:17;101223.06;;;8.25;47.49
54924;BME280;40825;52.270;20.984;2024-03-08T11:34:47;101220.53;;;8.11;47.75
54924;BME280;40825;52.270;20.984;2024-03-08T11:37:16;101217.42;;;7.97;48.09
54924;BME280;40825;52.270;20.984;2024-03-08T11:39:50;101216.85;;;7.92;48.84
54924;BME280;40825;52.270;20.984;2024-03-08T11:42:17;101211.46;;;7.95;47.36
54924;BME280;40825;52.270;20.984;2024-03-08T11:44:46;101211.05;;;8.05;47.74
54924;BME280;40825;52.270;20.984;2024-03-08T11:47:15;101206.65;;;8.13;46.49
54924;BME280;40825;52.270;20.984;2024-03-08T11:49:41;101205.11;;;8.25;47.73
54924;BME280;40825;52.270;20.984;2024-03-08T11:52:13;101203.35;;;8.34;47.44
54924;BME280;40825;52.270;20.984;2024-03-08T11:54:57;101207.30;;;8.38;47.97
54924;BME280;40825;52.270;20.984;2024-03-08T11:57:23;101205.13;;;8.51;49.21
54924;BME280;40825;52.270;20.984;2024-03-08T12:00:16;101202.61;;;8.66;48.73
54924;BME280;40825;52.270;20.984;2024-03-08T12:03:02;101196.19;;;8.65;44.67
54924;BME280;40825;52.270;20.984;2024-03-08T12:05:31;101193.34;;;8.67;44.33
54924;BME280;40825;52.270;20.984;2024-03-08T12:08:07;101193.36;;;8.77;44.26
54924;BME280;40825;52.270;20.984;2024-03-08T12:10:35;101189.35;;;8.97;44.14
54924;BME280;40825;52.270;20.984;2024-03-08T12:13:04;101186.48;;;8.95;39.56
54924;BME280;40825;52.270;20.984;2024-03-08T12:15:32;101183.92;;;9.04;41.08
54924;BME280;40825;52.270;20.984;2024-03-08T12:18:08;101180.58;;;9.25;43.79
54924;BME280;40825;52.270;20.984;2024-03-08T12:20:36;101180.41;;;9.45;44.77
54924;BME280;40825;52.270;20.984;2024-03-08T12:23:03;101174.94;;;9.68;43.28
54924;BME280;40825;52.270;20.984;2024-03-08T12:25:32;101172.77;;;9.72;39.81
54924;BME280;40825;52.270;20.984;2024-03-08T12:28:10;101165.71;;;9.73;40.81
54924;BME280;40825;52.270;20.984;2024-03-08T12:30:46;101164.42;;;9.95;43.96
54924;BME280;40825;52.270;20.984;2024-03-08T12:33:12;101163.05;;;10.18;43.46
54924;BME280;40825;52.270;20.984;2024-03-08T12:35:38;101160.39;;;10.30;43.46
54924;BME280;40825;52.270;20.984;2024-03-08T12:38:04;101159.39;;;10.53;43.57
54924;BME280;40825;52.270;20.984;2024-03-08T12:40:32;101157.46;;;10.80;45.45
54924;BME280;40825;52.270;20.984;2024-03-08T12:43:01;101151.94;;;11.08;45.95
54924;BME280;40825;52.270;20.984;2024-03-08T12:45:28;101154.02;;;11.05;40.39
54924;BME280;40825;52.270;20.984;2024-03-08T12:47:54;101146.88;;;11.07;43.01
54924;BME280;40825;52.270;20.984;2024-03-08T12:50:23;101146.07;;;11.24;44.17
54924;BME280;40825;52.270;20.984;2024-03-08T12:52:50;101139.02;;;11.41;41.85
54924;BME280;40825;52.270;20.984;2024-03-08T12:55:20;101139.30;;;11.21;36.07
54924;BME280;40825;52.270;20.984;2024-03-08T12:57:46;101135.05;;;10.79;33.93
54924;BME280;40825;52.270;20.984;2024-03-08T13:00:12;101132.13;;;10.55;34.66
54924;BME280;40825;52.270;20.984;2024-03-08T13:02:47;101127.85;;;10.55;37.63
54924;BME280;40825;52.270;20.984;2024-03-08T13:05:13;101127.21;;;10.64;37.07
54924;BME280;40825;52.270;20.984;2024-03-08T13:07:41;101127.36;;;10.48;35.04
54924;BME280;40825;52.270;20.984;2024-03-08T13:10:14;101125.52;;;10.34;37.15
54924;BME280;40825;52.270;20.984;2024-03-08T13:12:43;101124.46;;;10.48;40.11
54924;BME280;40825;52.270;20.984;2024-03-08T13:15:10;101119.04;;;10.65;39.32
54924;BME280;40825;52.270;20.984;2024-03-08T13:17:41;101112.91;;;10.75;40.87
54924;BME280;40825;52.270;20.984;2024-03-08T13:20:08;101113.13;;;10.75;41.38
54924;BME280;40825;52.270;20.984;2024-03-08T13:22:35;101106.50;;;10.77;41.32